createdAt,value
2022-11-02T00:02:08.853Z,7.55
2022-11-02T00:04:36.955Z,10.23
2022-11-02T00:07:04.635Z,7.85
2022-11-02T00:09:33.212Z,11.12
2022-11-02T00:12:04.759Z,8.60
2022-11-02T00:14:33.647Z,4.30
2022-11-02T00:17:01.722Z,9.25
2022-11-02T00:19:30.329Z,10.18
2022-11-02T00:21:59.069Z,10.45
2022-11-02T00:24:26.971Z,11.70
2022-11-02T00:26:55.282Z,9.60
2022-11-02T00:29:24.510Z,8.83
2022-11-02T00:31:52.026Z,10.20
2022-11-02T00:34:19.737Z,9.38
2022-11-02T00:36:50.595Z,5.17
2022-11-02T00:39:16.980Z,7.67
2022-11-02T00:41:45.177Z,6.60
2022-11-02T00:44:12.689Z,10.40
2022-11-02T00:46:40.195Z,7.85
2022-11-02T00:49:07.990Z,9.23
2022-11-02T00:51:36.669Z,5.70
2022-11-02T00:54:04.331Z,9.35
2022-11-02T00:56:33.472Z,9.60
2022-11-02T00:59:03.257Z,15.25
2022-11-02T01:01:30.984Z,12.07
2022-11-02T01:03:58.628Z,9.65
2022-11-02T01:06:26.360Z,10.48
2022-11-02T01:08:54.655Z,12.07
2022-11-02T01:11:24.764Z,15.43
2022-11-02T01:13:52.794Z,8.53
2022-11-02T01:16:21.221Z,15.55
2022-11-02T01:18:57.406Z,11.00
2022-11-02T01:23:53.200Z,13.43
2022-11-02T01:26:20.706Z,13.88
2022-11-02T01:28:48.319Z,11.53
2022-11-02T01:31:15.741Z,13.53
2022-11-02T01:33:45.809Z,11.00
2022-11-02T01:36:15.187Z,16.12
2022-11-02T01:38:42.462Z,8.03
2022-11-02T01:41:12.173Z,11.55
2022-11-02T01:43:46.052Z,12.20
2022-11-02T01:46:17.265Z,13.70
2022-11-02T01:48:54.686Z,11.28
2022-11-02T01:51:26.130Z,11.68
2022-11-02T01:53:55.847Z,9.43
2022-11-02T01:56:25.661Z,16.97
2022-11-02T01:58:58.215Z,11.48
2022-11-02T02:01:28.396Z,12.47
2022-11-02T02:03:57.706Z,10.32
2022-11-02T02:06:26.414Z,15.43
2022-11-02T02:08:57.475Z,11.28
2022-11-02T02:11:35.663Z,9.78
2022-11-02T02:14:06.970Z,12.82
2022-11-02T02:19:32.349Z,13.35
2022-11-02T02:22:37.233Z,7.35
2022-11-02T02:25:28.828Z,11.37
2022-11-02T02:28:21.134Z,4.92
2022-11-02T02:31:11.809Z,8.78
2022-11-02T02:33:58.050Z,10.55
2022-11-02T02:36:32.235Z,6.70
2022-11-02T02:39:08.641Z,10.65
2022-11-02T02:41:40.097Z,8.93
2022-11-02T02:44:14.102Z,8.65
2022-11-02T02:46:46.685Z,12.65
2022-11-02T02:49:18.052Z,11.05
2022-11-02T02:51:47.697Z,9.35
2022-11-02T02:54:21.787Z,7.62
2022-11-02T02:56:53.208Z,13.68
2022-11-02T02:59:24.722Z,8.40
2022-11-02T03:01:56.001Z,8.43
2022-11-02T03:04:24.998Z,9.33
2022-11-02T03:06:56.371Z,6.75
2022-11-02T03:09:36.196Z,11.03
2022-11-02T03:12:23.800Z,10.68
2022-11-02T03:15:10.044Z,8.35
2022-11-02T03:17:58.174Z,6.55
2022-11-02T03:20:50.532Z,14.65
2022-11-02T03:23:27.827Z,8.50
2022-11-02T03:26:14.348Z,9.83
2022-11-02T03:28:56.448Z,11.88
2022-11-02T03:31:45.043Z,10.82
2022-11-02T03:34:17.526Z,7.42
2022-11-02T03:37:03.956Z,5.15
2022-11-02T03:39:38.677Z,7.60
2022-11-02T03:42:09.373Z,8.55
2022-11-02T03:44:39.704Z,12.43
2022-11-02T03:47:12.028Z,11.18
2022-11-02T03:49:42.870Z,12.15
2022-11-02T03:52:14.983Z,9.53
2022-11-02T03:54:50.081Z,7.55
2022-11-02T03:57:22.107Z,9.95
2022-11-02T03:59:50.713Z,11.20
2022-11-02T04:02:20.834Z,13.65
2022-11-02T04:04:52.799Z,10.95
2022-11-02T04:07:29.059Z,9.88
2022-11-02T04:09:57.081Z,7.67
2022-11-02T04:12:42.655Z,10.95
2022-11-02T04:15:11.001Z,8.98
2022-11-02T04:17:56.797Z,7.90
2022-11-02T04:20:24.861Z,8.88
2022-11-02T04:23:11.201Z,6.62
2022-11-02T04:25:39.034Z,10.82
2022-11-02T04:28:15.906Z,5.15
2022-11-02T04:30:48.635Z,7.10
2022-11-02T04:33:34.754Z,9.90
2022-11-02T04:36:15.967Z,9.68
2022-11-02T04:38:44.956Z,7.30
2022-11-02T04:41:36.068Z,14.43
2022-11-02T04:44:05.791Z,6.72
2022-11-02T04:46:37.633Z,11.93
2022-11-02T04:49:07.107Z,10.00
2022-11-02T04:51:35.642Z,9.80
2022-11-02T04:54:03.811Z,13.98
2022-11-02T04:56:33.016Z,14.98
2022-11-02T04:59:01.762Z,11.75
2022-11-02T05:01:30.917Z,10.58
2022-11-02T05:03:59.694Z,11.95
2022-11-02T05:06:28.164Z,10.70
2022-11-02T05:08:56.606Z,12.78
2022-11-02T05:11:24.534Z,14.15
2022-11-02T05:13:52.190Z,11.70
2022-11-02T05:16:19.864Z,10.85
2022-11-02T05:18:49.472Z,7.90
2022-11-02T05:21:18.266Z,10.20
2022-11-02T05:23:45.694Z,11.85
2022-11-02T05:26:13.471Z,10.48
2022-11-02T05:28:43.200Z,10.30
2022-11-02T05:31:11.195Z,12.70
2022-11-02T05:33:39.643Z,13.03
2022-11-02T05:36:09.967Z,14.38
2022-11-02T05:41:07.056Z,15.85
2022-11-02T05:43:36.683Z,13.55
2022-11-02T05:46:06.022Z,13.08
2022-11-02T05:48:34.425Z,16.32
2022-11-02T05:51:04.385Z,12.93
2022-11-02T05:53:34.314Z,12.23
2022-11-02T05:56:02.986Z,13.55
2022-11-02T05:58:31.323Z,13.00
2022-11-02T06:01:01.795Z,12.63
2022-11-02T06:03:29.757Z,16.42
2022-11-02T06:06:01.760Z,9.73
2022-11-02T06:08:38.211Z,10.55
2022-11-02T06:11:11.527Z,11.63
2022-11-02T06:13:40.047Z,11.22
2022-11-02T06:16:11.217Z,15.28
2022-11-02T06:18:40.632Z,13.88
2022-11-02T06:21:08.781Z,12.13
2022-11-02T06:23:36.958Z,15.53
2022-11-02T06:26:04.800Z,8.93
2022-11-02T06:28:32.802Z,14.68
2022-11-02T06:31:03.732Z,9.25
2022-11-02T06:33:31.645Z,13.80
2022-11-02T06:35:59.868Z,10.93
2022-11-02T06:38:27.745Z,14.53
2022-11-02T06:40:58.275Z,13.90
2022-11-02T06:43:27.197Z,11.10
2022-11-02T06:45:56.228Z,13.45
2022-11-02T06:48:28.616Z,22.80
2022-11-02T06:50:54.744Z,19.82
2022-11-02T06:53:22.610Z,20.65
2022-11-02T06:55:57.157Z,12.88
2022-11-02T07:00:58.582Z,12.88
2022-11-02T07:03:26.267Z,13.15
2022-11-02T07:05:54.616Z,14.85
2022-11-02T07:08:25.220Z,20.15
2022-11-02T07:10:52.960Z,13.00
2022-11-02T07:13:21.143Z,14.13
2022-11-02T07:15:56.108Z,12.88
2022-11-02T07:18:24.454Z,13.65
2022-11-02T07:20:52.476Z,13.20
2022-11-02T07:23:21.980Z,11.08
2022-11-02T07:25:49.917Z,18.05
2022-11-02T07:28:18.917Z,18.12
2022-11-02T07:30:48.341Z,14.47
2022-11-02T07:33:16.126Z,13.48
2022-11-02T07:35:44.874Z,16.27
2022-11-02T07:38:12.415Z,17.23
2022-11-02T07:40:40.163Z,22.10
2022-11-02T07:43:08.568Z,17.55
2022-11-02T07:45:38.347Z,14.83
2022-11-02T07:48:06.431Z,11.25
2022-11-02T07:50:34.592Z,12.53
2022-11-02T07:53:02.377Z,18.60
2022-11-02T07:55:31.968Z,12.95
2022-11-02T07:58:01.424Z,17.15
2022-11-02T08:00:31.558Z,16.60
2022-11-02T08:03:01.258Z,12.70
2022-11-02T08:05:30.241Z,13.78
2022-11-02T08:08:01.980Z,21.12
2022-11-02T08:10:35.445Z,13.70
2022-11-02T08:13:01.701Z,10.63
2022-11-02T08:15:29.772Z,12.75
2022-11-02T08:18:03.216Z,14.05
2022-11-02T08:20:32.285Z,16.23
2022-11-02T08:23:01.580Z,15.50
2022-11-02T08:25:36.874Z,14.55
2022-11-02T08:30:49.856Z,16.77
2022-11-02T08:33:22.133Z,16.37
2022-11-02T08:35:50.087Z,13.95
2022-11-02T08:38:21.542Z,11.40
2022-11-02T08:40:50.041Z,11.85
2022-11-02T08:43:17.951Z,16.55
2022-11-02T08:46:13.775Z,14.28
2022-11-02T08:48:17.372Z,12.00
2022-11-02T08:50:47.928Z,20.10
2022-11-02T08:53:18.758Z,19.25
2022-11-02T08:55:46.321Z,17.87
2022-11-02T08:58:15.143Z,23.00
2022-11-02T09:00:44.042Z,17.10
2022-11-02T09:03:21.929Z,21.07
2022-11-02T09:05:48.199Z,22.27
2022-11-02T09:08:19.211Z,19.02
2022-11-02T09:10:50.183Z,21.87
2022-11-02T09:13:20.844Z,20.65
2022-11-02T09:15:52.033Z,22.32
2022-11-02T09:18:20.319Z,25.57
2022-11-02T09:20:48.853Z,20.72
2022-11-02T09:23:17.485Z,23.25
2022-11-02T09:25:45.475Z,23.67
2022-11-02T09:28:14.116Z,20.68
2022-11-02T09:30:42.364Z,20.50
2022-11-02T09:33:10.869Z,30.65
2022-11-02T09:35:42.051Z,29.30
2022-11-02T09:38:09.748Z,22.22
2022-11-02T09:40:46.876Z,26.17
2022-11-02T09:43:32.699Z,28.83
2022-11-02T09:46:18.659Z,23.55
2022-11-02T09:48:49.886Z,20.85
2022-11-02T09:51:25.357Z,23.70
2022-11-02T09:54:13.126Z,25.65
2022-11-02T09:56:38.587Z,21.15
2022-11-02T09:59:21.470Z,26.87
2022-11-02T10:02:17.011Z,22.32
2022-11-02T10:08:02.448Z,25.57
2022-11-02T10:10:43.318Z,26.82
2022-11-02T10:13:25.276Z,27.95
2022-11-02T10:15:59.291Z,29.75
2022-11-02T10:18:30.056Z,27.90
2022-11-02T10:21:07.109Z,25.88
2022-11-02T10:23:44.211Z,28.52
2022-11-02T10:26:18.695Z,28.90
2022-11-02T10:28:53.461Z,27.00
2022-11-02T10:31:27.587Z,32.50
2022-11-02T10:33:58.272Z,32.58
2022-11-02T10:36:38.757Z,31.48
2022-11-02T10:39:24.923Z,33.83
2022-11-02T10:42:20.447Z,28.45
2022-11-02T10:45:10.019Z,29.50
2022-11-02T10:47:44.451Z,28.57
2022-11-02T10:50:35.206Z,31.82
2022-11-02T10:53:35.274Z,28.50
2022-11-02T10:55:52.213Z,34.27
2022-11-02T10:58:21.670Z,31.27
2022-11-02T11:00:49.427Z,35.38
2022-11-02T11:03:19.137Z,33.42
2022-11-02T11:06:03.416Z,30.85
2022-11-02T11:08:38.016Z,35.00
2022-11-02T11:16:19.626Z,30.25
2022-11-02T11:21:21.924Z,31.27
2022-11-02T11:23:49.812Z,31.15
2022-11-02T11:26:31.585Z,32.42
2022-11-02T11:28:59.755Z,31.80
2022-11-02T11:31:27.480Z,33.92
2022-11-02T11:34:00.369Z,34.40
2022-11-02T11:36:36.187Z,32.40
2022-11-02T11:39:10.786Z,28.25
2022-11-02T11:41:40.921Z,29.37
2022-11-02T11:44:13.380Z,32.03
2022-11-02T11:46:44.825Z,31.25
2022-11-02T11:51:58.367Z,29.48
2022-11-02T11:54:30.819Z,34.95
2022-11-02T11:57:01.754Z,33.73
2022-11-02T11:59:35.942Z,29.60
2022-11-02T12:02:05.597Z,29.45
2022-11-02T12:04:35.636Z,31.30
2022-11-02T12:07:29.416Z,34.63
2022-11-02T12:10:16.958Z,28.62
2022-11-02T12:13:09.502Z,27.50
2022-11-02T12:15:44.292Z,33.75
2022-11-02T12:18:33.665Z,43.65
2022-11-02T12:21:22.877Z,33.65
2022-11-02T12:23:57.211Z,34.98
2022-11-02T12:26:40.671Z,29.63
2022-11-02T12:29:31.736Z,35.40
2022-11-02T12:32:12.257Z,31.12
2022-11-02T12:35:28.417Z,30.88
2022-11-02T12:37:55.016Z,32.40
2022-11-02T12:40:29.447Z,33.83
2022-11-02T12:43:34.020Z,33.42
2022-11-02T12:46:14.129Z,32.23
2022-11-02T12:49:05.148Z,37.63
2022-11-02T12:52:02.139Z,46.42
2022-11-02T12:54:36.667Z,33.95
2022-11-02T12:57:03.574Z,33.48
2022-11-02T12:59:33.923Z,38.90
2022-11-02T13:02:08.435Z,37.28
2022-11-02T13:04:54.974Z,39.30
2022-11-02T13:07:26.556Z,41.77
2022-11-02T13:10:06.720Z,35.50
2022-11-02T13:12:38.371Z,38.35
2022-11-02T13:15:11.958Z,38.25
2022-11-02T13:17:53.900Z,33.42
2022-11-02T13:20:43.459Z,44.90
2022-11-02T13:23:20.380Z,41.05
2022-11-02T13:25:52.007Z,39.18
2022-11-02T13:28:38.499Z,36.35
2022-11-02T13:31:12.909Z,39.60
2022-11-02T13:33:51.314Z,37.33
2022-11-02T13:36:20.460Z,42.90
2022-11-02T13:38:57.782Z,39.63
2022-11-02T13:41:37.415Z,39.20
2022-11-02T13:44:30.254Z,41.48
2022-11-02T13:47:18.624Z,40.88
2022-11-02T13:49:55.835Z,41.40
2022-11-02T13:52:30.186Z,45.60
2022-11-02T13:55:01.848Z,46.40
2022-11-02T13:57:41.492Z,45.30
2022-11-02T14:00:24.770Z,47.73
2022-11-02T14:03:02.216Z,52.35
2022-11-02T14:05:33.148Z,41.15
2022-11-02T14:08:07.211Z,41.48
2022-11-02T14:10:38.728Z,46.15
2022-11-02T14:13:07.126Z,54.23
2022-11-02T14:15:38.413Z,41.65
2022-11-02T14:18:14.738Z,43.38
2022-11-02T14:20:47.174Z,43.95
2022-11-02T14:23:27.772Z,49.50
2022-11-02T14:26:01.579Z,65.10
2022-11-02T14:28:34.650Z,57.20
2022-11-02T14:31:08.679Z,45.60
2022-11-02T14:33:51.934Z,44.73
2022-11-02T14:36:29.340Z,46.58
2022-11-02T14:39:26.597Z,51.63
2022-11-02T14:42:13.376Z,43.58
2022-11-02T14:44:45.914Z,47.93
2022-11-02T14:47:17.088Z,44.85
2022-11-02T14:49:56.202Z,46.95
2022-11-02T14:52:32.906Z,49.65
2022-11-02T14:55:10.637Z,45.23
2022-11-02T14:57:41.735Z,54.42
2022-11-02T15:00:24.409Z,54.33
2022-11-02T15:02:55.566Z,47.50
2022-11-02T15:05:36.319Z,53.48
2022-11-02T15:08:22.882Z,49.65
2022-11-02T15:10:50.164Z,51.30
2022-11-02T15:13:24.775Z,53.10
2022-11-02T15:15:56.513Z,46.90
2022-11-02T15:18:33.864Z,66.67
2022-11-02T15:21:15.389Z,82.35
2022-11-02T15:23:57.308Z,61.77
2022-11-02T15:26:45.345Z,50.60
2022-11-02T15:29:16.859Z,47.93
2022-11-02T15:31:48.266Z,50.55
2022-11-02T15:34:18.809Z,49.13
2022-11-02T15:36:47.415Z,54.93
2022-11-02T15:39:17.196Z,54.80
2022-11-02T15:41:54.907Z,51.75
2022-11-02T15:44:29.628Z,54.38
2022-11-02T15:47:04.130Z,51.53
2022-11-02T15:49:57.787Z,53.92
2022-11-02T15:52:32.409Z,50.15
2022-11-02T15:57:42.046Z,47.93
2022-11-02T16:00:21.886Z,54.63
2022-11-02T16:02:52.017Z,47.00
2022-11-02T16:05:26.257Z,50.38
2022-11-02T16:08:11.966Z,59.83
2022-11-02T16:10:29.271Z,59.60
2022-11-02T16:12:59.723Z,56.53
2022-11-02T16:15:28.376Z,65.22
2022-11-02T16:17:56.540Z,50.85
2022-11-02T16:20:30.945Z,55.38
2022-11-02T16:23:02.466Z,54.77
2022-11-02T16:25:42.824Z,49.55
2022-11-02T16:28:27.032Z,55.65
2022-11-02T16:31:19.454Z,55.43
2022-11-02T16:33:58.621Z,56.92
2022-11-02T16:36:29.020Z,60.33
2022-11-02T16:39:07.585Z,51.20
2022-11-02T16:41:36.412Z,52.27
2022-11-02T16:44:11.966Z,60.20
2022-11-02T16:47:10.785Z,55.67
2022-11-02T16:49:52.856Z,57.67
2022-11-02T16:52:23.364Z,58.02
2022-11-02T16:54:51.405Z,54.70
2022-11-02T16:57:25.440Z,57.15
2022-11-02T17:00:00.699Z,61.47
2022-11-02T17:02:43.003Z,54.70
2022-11-02T17:05:22.266Z,58.95
2022-11-02T17:07:56.610Z,57.60
2022-11-02T17:10:28.279Z,59.35
2022-11-02T17:13:02.316Z,53.13
2022-11-02T17:15:32.479Z,68.75
2022-11-02T17:18:17.702Z,57.58
2022-11-02T17:20:45.194Z,53.25
2022-11-02T17:23:33.012Z,59.35
2022-11-02T17:26:36.101Z,55.75
2022-11-02T17:29:27.198Z,53.92
2022-11-02T17:31:57.443Z,62.75
2022-11-02T17:34:25.180Z,59.98
2022-11-02T17:36:53.417Z,57.95
2022-11-02T17:39:21.576Z,58.23
2022-11-02T17:42:14.003Z,57.78
2022-11-02T17:44:42.427Z,57.33
2022-11-02T17:47:13.069Z,55.55
2022-11-02T17:49:40.990Z,53.78
2022-11-02T17:52:14.745Z,56.88
2022-11-02T17:54:42.624Z,59.08
2022-11-02T17:57:16.122Z,53.05
2022-11-02T17:59:44.078Z,58.50
2022-11-02T18:02:15.964Z,58.15
2022-11-02T18:07:12.384Z,54.90
2022-11-02T18:09:41.981Z,54.25
2022-11-02T18:12:14.230Z,50.48
2022-11-02T18:14:42.211Z,54.05
2022-11-02T18:17:09.851Z,57.95
2022-11-02T18:19:38.067Z,62.43
2022-11-02T18:22:05.591Z,70.17
2022-11-02T18:24:33.109Z,68.10
2022-11-02T18:27:01.132Z,80.62
2022-11-02T18:29:29.115Z,94.25
2022-11-02T18:31:57.135Z,88.35
2022-11-02T18:34:27.385Z,86.55
2022-11-02T18:36:55.094Z,95.67
2022-11-02T18:39:22.661Z,90.65
2022-11-02T18:41:51.813Z,80.40
2022-11-02T18:44:19.924Z,89.87
2022-11-02T18:46:48.262Z,82.27
2022-11-02T18:49:15.797Z,83.10
2022-11-02T18:51:43.800Z,82.97
2022-11-02T18:54:12.050Z,67.42
2022-11-02T18:56:39.587Z,75.83
2022-11-02T18:59:07.425Z,65.08
2022-11-02T19:01:37.628Z,70.45
2022-11-02T19:04:06.371Z,73.02
2022-11-02T19:06:52.764Z,73.65
2022-11-02T19:09:23.465Z,76.17
2022-11-02T19:11:57.362Z,69.75
2022-11-02T19:14:25.434Z,69.22
2022-11-02T19:16:53.406Z,65.70
2022-11-02T19:19:21.056Z,73.00
2022-11-02T19:21:48.927Z,59.10
2022-11-02T19:24:16.925Z,67.75
2022-11-02T19:26:45.023Z,63.80
2022-11-02T19:29:13.338Z,60.63
2022-11-02T19:31:41.376Z,63.23
2022-11-02T19:34:09.373Z,59.73
2022-11-02T19:36:41.402Z,65.22
2022-11-02T19:39:10.843Z,57.93
2022-11-02T19:41:39.305Z,57.58
2022-11-02T19:44:07.223Z,61.28
2022-11-02T19:46:35.457Z,57.93
2022-11-02T19:49:03.000Z,56.88
2022-11-02T19:51:37.291Z,65.75
2022-11-02T19:54:03.034Z,57.43
2022-11-02T19:56:35.975Z,66.95
2022-11-02T19:59:05.314Z,60.10
2022-11-02T20:01:39.678Z,66.50
2022-11-02T20:04:07.938Z,62.38
2022-11-02T20:06:38.899Z,59.10
2022-11-02T20:09:09.563Z,66.55
2022-11-02T20:11:40.344Z,73.25
2022-11-02T20:14:08.865Z,71.40
2022-11-02T20:16:36.835Z,65.28
2022-11-02T20:19:06.858Z,61.28
2022-11-02T20:21:39.906Z,60.35
2022-11-02T20:24:04.779Z,64.25
2022-11-02T20:26:35.719Z,58.60
2022-11-02T20:29:05.350Z,62.83
2022-11-02T20:31:36.779Z,59.75
2022-11-02T20:34:07.690Z,56.63
2022-11-02T20:36:35.131Z,55.25
2022-11-02T20:39:07.642Z,52.88
2022-11-02T20:41:41.451Z,59.93
2022-11-02T20:44:09.115Z,56.77
2022-11-02T20:46:41.037Z,50.85
2022-11-02T20:49:20.742Z,51.40
2022-11-02T20:51:37.852Z,50.45
2022-11-02T20:54:18.979Z,48.23
2022-11-02T20:56:49.808Z,51.53
2022-11-02T20:59:23.590Z,50.70
2022-11-02T21:01:54.919Z,48.95
2022-11-02T21:04:25.319Z,48.83
2022-11-02T21:06:52.979Z,44.63
2022-11-02T21:09:20.843Z,39.48
2022-11-02T21:12:06.768Z,43.30
2022-11-02T21:14:34.439Z,42.05
2022-11-02T21:17:02.975Z,45.95
2022-11-02T21:19:30.695Z,44.38
2022-11-02T21:22:00.209Z,42.25
2022-11-02T21:24:29.039Z,68.33
2022-11-02T21:26:56.955Z,38.80
2022-11-02T21:29:28.777Z,39.00
2022-11-02T21:31:56.731Z,42.13
2022-11-02T21:34:27.500Z,44.48
2022-11-02T21:36:55.592Z,38.00
2022-11-02T21:39:23.454Z,43.30
2022-11-02T21:41:51.031Z,43.08
2022-11-02T21:44:19.123Z,35.98
2022-11-02T21:46:47.060Z,32.40
2022-11-02T21:49:14.925Z,32.73
2022-11-02T21:51:43.406Z,27.85
2022-11-02T21:54:11.703Z,39.50
2022-11-02T21:56:43.488Z,31.42
2022-11-02T21:59:11.242Z,33.58
2022-11-02T22:01:45.352Z,41.75
2022-11-02T22:04:16.379Z,34.58
2022-11-02T22:06:54.319Z,29.90
2022-11-02T22:09:22.792Z,39.20
2022-11-02T22:11:52.253Z,43.25
2022-11-02T22:17:16.446Z,41.25
2022-11-02T22:19:38.236Z,38.90
2022-11-02T22:22:06.180Z,40.08
2022-11-02T22:24:33.588Z,37.40
2022-11-02T22:27:01.902Z,40.15
2022-11-02T22:29:29.691Z,42.00
2022-11-02T22:31:57.722Z,41.42
2022-11-02T22:34:25.656Z,41.55
2022-11-02T22:36:53.666Z,40.92
2022-11-02T22:39:21.469Z,35.48
2022-11-02T22:41:49.639Z,42.80
2022-11-02T22:44:19.903Z,36.13
2022-11-02T22:46:50.581Z,41.90
2022-11-02T22:49:19.757Z,45.90
2022-11-02T22:51:50.464Z,41.98
2022-11-02T22:54:19.680Z,40.08
2022-11-02T22:56:48.876Z,42.98
2022-11-02T22:59:17.056Z,40.03
2022-11-02T23:01:45.569Z,42.53
2022-11-02T23:04:13.720Z,36.90
2022-11-02T23:06:41.760Z,39.73
2022-11-02T23:09:11.441Z,38.42
2022-11-02T23:11:39.331Z,35.73
2022-11-02T23:14:09.616Z,45.28
2022-11-02T23:16:40.028Z,37.70
2022-11-02T23:19:27.294Z,39.40
2022-11-02T23:21:58.168Z,42.93
2022-11-02T23:24:44.313Z,41.75
2022-11-02T23:27:12.393Z,44.53
2022-11-02T23:29:58.809Z,39.67
2022-11-02T23:32:26.815Z,35.45
2022-11-02T23:35:14.066Z,38.60
2022-11-02T23:37:45.267Z,36.75
2022-11-02T23:40:15.734Z,41.42
2022-11-02T23:42:43.730Z,37.78
2022-11-02T23:45:11.741Z,36.17
2022-11-02T23:47:57.650Z,36.58
2022-11-02T23:50:48.126Z,41.28
2022-11-02T23:53:36.384Z,34.55
2022-11-02T23:56:23.615Z,36.95
2022-11-02T23:58:56.060Z,30.68
